Time;durP1;ratioP1;P1;durP2;ratioP2;P2;SDS_P1;SDS_P2;PMS_P1;PMS_P2;Temp;Humidity;BMP_temperature;BMP_pressure;BME280_temperature;BME280_humidity;BME280_pressure;Samples;Min_cycle;Max_cycle;Signal;HPM_P1;HPM_P2
2023/08/22 00:02:04;;;;;;;;;;;22.80;99.90;;;;;;7611399;19;19923;-78
2023/08/22 00:04:36;;;;;;;;;;;22.90;99.90;;;;;;7605988;19;19923;-80
2023/08/22 00:07:08;;;;;;;;;;;22.80;99.90;;;;;;7612798;19;19952;-79
2023/08/22 00:09:40;;;;;;;;;;;22.70;99.90;;;;;;7614360;19;19919;-78
2023/08/22 00:12:12;;;;;;;;;;;22.80;99.90;;;;;;7607774;19;19927;-78
2023/08/22 00:14:45;;;;;;;;;;;22.90;99.90;;;;;;7609631;19;19930;-77
2023/08/22 00:17:20;;;;;;;;;;;22.90;99.90;;;;;;7610057;19;19919;-79
2023/08/22 00:19:52;;;;;;;;;;;22.90;99.90;;;;;;7614109;19;19919;-79
2023/08/22 00:22:24;;;;;;;;;;;22.70;99.90;;;;;;7609924;19;19922;-78
2023/08/22 00:24:56;;;;;;;;;;;22.70;99.90;;;;;;7611180;19;20351;-79
2023/08/22 00:27:29;;;;;;;;;;;22.70;99.90;;;;;;7611031;19;19930;-79
2023/08/22 00:30:02;;;;;;;;;;;22.60;99.90;;;;;;7597886;19;19934;-78
2023/08/22 00:32:35;;;;;;;;;;;22.50;99.90;;;;;;7611787;19;20365;-78
2023/08/22 00:35:07;;;;;;;;;;;22.50;99.90;;;;;;7607528;19;19922;-80
2023/08/22 00:37:40;;;;;;;;;;;22.40;99.90;;;;;;7609351;19;19923;-80
2023/08/22 00:40:12;;;;;;;;;;;22.30;99.90;;;;;;7606917;19;19923;-79
2023/08/22 00:42:44;;;;;;;;;;;22.30;99.90;;;;;;7609313;19;20381;-80
2023/08/22 00:45:17;;;;;;;;;;;22.30;99.90;;;;;;7603924;19;20540;-78
2023/08/22 00:47:49;;;;;;;;;;;22.30;99.90;;;;;;7605999;19;19937;-77
2023/08/22 00:50:21;;;;;;;;;;;22.20;99.90;;;;;;7607057;19;20696;-78
2023/08/22 00:52:55;;;;;;;;;;;22.20;99.90;;;;;;7604219;19;19918;-80
2023/08/22 00:55:27;;;;;;;;;;;22.20;99.90;;;;;;7607429;19;19931;-79
2023/08/22 00:57:59;;;;;;;;;;;22.20;99.90;;;;;;7610147;19;20389;-77
2023/08/22 01:00:32;;;;;;;;;;;22.20;99.90;;;;;;7604259;19;19929;-80
2023/08/22 01:03:04;;;;;;;;;;;22.10;99.90;;;;;;7606151;19;20253;-79
2023/08/22 01:05:38;;;;;;;;;;;22.10;99.90;;;;;;7608589;19;20274;-80
2023/08/22 01:08:13;;;;;;;;;;;22.00;99.90;;;;;;7612920;19;19918;-80
2023/08/22 01:10:52;;;;;;;;;;;22.00;99.90;;;;;;7614624;19;20563;-78
2023/08/22 01:13:31;;;;;;;;;;;21.90;99.90;;;;;;7610821;19;19918;-79
2023/08/22 01:16:03;;;;;;;;;;;21.90;99.90;;;;;;7613423;19;19925;-81
2023/08/22 01:18:36;;;;;;;;;;;21.90;99.90;;;;;;7615540;19;19914;-78
2023/08/22 01:21:16;;;;;;;;;;;21.90;99.90;;;;;;7612952;19;20030;-78
2023/08/22 01:23:49;;;;;;;;;;;21.90;99.90;;;;;;7614599;19;20455;-80
2023/08/22 01:26:22;;;;;;;;;;;21.90;99.90;;;;;;7606429;19;19922;-79
2023/08/22 01:28:59;;;;;;;;;;;21.90;99.90;;;;;;7615369;19;19919;-78
2023/08/22 01:31:34;;;;;;;;;;;21.90;99.90;;;;;;7609855;19;19923;-78
2023/08/22 01:34:17;;;;;;;;;;;21.80;99.90;;;;;;7612643;19;20280;-78
2023/08/22 01:36:52;;;;;;;;;;;21.70;99.90;;;;;;7603214;19;19995;-80
2023/08/22 01:39:27;;;;;;;;;;;21.60;99.90;;;;;;7609634;19;20292;-78
2023/08/22 01:42:00;;;;;;;;;;;21.60;99.90;;;;;;7614737;19;21577;-79
2023/08/22 01:44:36;;;;;;;;;;;21.60;99.90;;;;;;7609184;19;19927;-79
2023/08/22 01:47:08;;;;;;;;;;;21.50;99.90;;;;;;7611224;19;20011;-77
2023/08/22 01:49:40;;;;;;;;;;;21.50;99.90;;;;;;7607667;19;19932;-81
2023/08/22 01:52:13;;;;;;;;;;;21.50;99.90;;;;;;7613496;19;20409;-80
2023/08/22 01:54:48;;;;;;;;;;;21.40;99.90;;;;;;7610677;19;20523;-80
2023/08/22 01:57:20;;;;;;;;;;;21.40;99.90;;;;;;7611800;19;19915;-78
2023/08/22 01:59:52;;;;;;;;;;;21.40;99.90;;;;;;7616477;19;20692;-80
2023/08/22 02:02:25;;;;;;;;;;;21.40;99.90;;;;;;7612333;19;19921;-80
2023/08/22 02:04:58;;;;;;;;;;;21.30;99.90;;;;;;7608012;19;20066;-79
2023/08/22 02:07:31;;;;;;;;;;;21.30;99.90;;;;;;7610172;19;19922;-78
2023/08/22 02:10:05;;;;;;;;;;;21.20;99.90;;;;;;7612452;19;20337;-77
2023/08/22 02:12:37;;;;;;;;;;;21.20;99.90;;;;;;7611177;19;19926;-76
2023/08/22 02:15:09;;;;;;;;;;;21.10;99.90;;;;;;7610878;19;19921;-79
2023/08/22 02:17:41;;;;;;;;;;;21.20;99.90;;;;;;7612192;19;19933;-80
2023/08/22 02:20:14;;;;;;;;;;;21.10;99.90;;;;;;7609665;19;21690;-79
2023/08/22 02:22:46;;;;;;;;;;;21.20;99.90;;;;;;7610501;19;20747;-77
2023/08/22 02:25:19;;;;;;;;;;;21.20;99.90;;;;;;7614890;19;19919;-77
2023/08/22 02:27:51;;;;;;;;;;;21.10;99.90;;;;;;7610281;19;19922;-73
2023/08/22 02:30:23;;;;;;;;;;;21.00;99.90;;;;;;7612674;19;19930;-74
2023/08/22 02:32:56;;;;;;;;;;;21.00;99.90;;;;;;7608786;19;19949;-74
2023/08/22 02:35:28;;;;;;;;;;;21.00;99.90;;;;;;7605768;19;19934;-75
2023/08/22 02:38:00;;;;;;;;;;;20.90;99.90;;;;;;7613045;19;19941;-76
2023/08/22 02:40:33;;;;;;;;;;;20.90;99.90;;;;;;7612201;19;20378;-76
2023/08/22 02:43:05;;;;;;;;;;;21.00;99.90;;;;;;7612971;19;19952;-76
2023/08/22 02:45:37;;;;;;;;;;;21.20;99.90;;;;;;7604970;19;20466;-74
2023/08/22 02:48:10;;;;;;;;;;;21.20;99.90;;;;;;7611402;19;19923;-74
2023/08/22 02:50:42;;;;;;;;;;;21.20;99.90;;;;;;7608325;19;20324;-76
2023/08/22 02:53:15;;;;;;;;;;;21.20;99.90;;;;;;7610559;19;19910;-75
2023/08/22 02:55:48;;;;;;;;;;;21.00;99.90;;;;;;7605578;19;19915;-75
2023/08/22 02:58:20;;;;;;;;;;;21.10;99.90;;;;;;7615031;19;19965;-76
2023/08/22 03:00:53;;;;;;;;;;;21.10;99.90;;;;;;7611753;19;19923;-74
2023/08/22 03:03:26;;;;;;;;;;;21.10;99.90;;;;;;7611992;19;20268;-75
2023/08/22 03:06:02;;;;;;;;;;;21.10;99.90;;;;;;7607622;19;19930;-74
2023/08/22 03:08:35;;;;;;;;;;;21.10;99.90;;;;;;7605809;19;19927;-74
2023/08/22 03:11:08;;;;;;;;;;;21.10;99.90;;;;;;7608751;19;19945;-75
2023/08/22 03:13:40;;;;;;;;;;;21.10;99.90;;;;;;7608208;19;19950;-74
2023/08/22 03:16:13;;;;;;;;;;;21.10;99.90;;;;;;7604490;19;19963;-75
2023/08/22 03:18:48;;;;;;;;;;;21.00;99.90;;;;;;7607343;19;19923;-74
2023/08/22 03:21:20;;;;;;;;;;;21.00;99.90;;;;;;7610067;19;20274;-75
2023/08/22 03:23:53;;;;;;;;;;;21.00;99.90;;;;;;7606378;19;19919;-76
2023/08/22 03:26:26;;;;;;;;;;;21.10;99.90;;;;;;7604520;19;20597;-74
2023/08/22 03:28:58;;;;;;;;;;;21.10;99.90;;;;;;7607495;19;19948;-75
2023/08/22 03:31:31;;;;;;;;;;;21.00;99.90;;;;;;7605912;19;20194;-74
2023/08/22 03:34:03;;;;;;;;;;;21.00;99.90;;;;;;7609492;19;19923;-76
2023/08/22 03:36:36;;;;;;;;;;;21.00;99.90;;;;;;7604335;19;19938;-75
2023/08/22 03:39:11;;;;;;;;;;;20.90;99.90;;;;;;7610096;19;19955;-74
2023/08/22 03:41:43;;;;;;;;;;;20.90;99.90;;;;;;7607125;19;19925;-74
2023/08/22 03:44:16;;;;;;;;;;;20.90;99.90;;;;;;7610680;19;19918;-76
2023/08/22 03:46:48;;;;;;;;;;;20.90;99.90;;;;;;7604585;19;19967;-76
2023/08/22 03:49:31;;;;;;;;;;;20.90;99.90;;;;;;7608492;19;20628;-74
2023/08/22 03:52:03;;;;;;;;;;;20.90;99.90;;;;;;7608806;19;19918;-75
2023/08/22 03:54:37;;;;;;;;;;;20.80;99.90;;;;;;7606978;19;19933;-76
2023/08/22 03:57:09;;;;;;;;;;;20.80;99.90;;;;;;7611713;19;19934;-74
2023/08/22 03:59:41;;;;;;;;;;;20.80;99.90;;;;;;7609868;19;19926;-74
2023/08/22 04:02:13;;;;;;;;;;;20.80;99.90;;;;;;7609289;19;19947;-74
2023/08/22 04:04:45;;;;;;;;;;;20.70;99.90;;;;;;7607404;19;20357;-74
2023/08/22 04:07:18;;;;;;;;;;;20.60;99.90;;;;;;7612724;19;20358;-74
2023/08/22 04:09:50;;;;;;;;;;;20.50;99.90;;;;;;7608198;19;19945;-76
2023/08/22 04:12:23;;;;;;;;;;;20.40;99.90;;;;;;7609618;19;19923;-76
2023/08/22 04:14:56;;;;;;;;;;;20.40;99.90;;;;;;7605001;19;19923;-74
2023/08/22 04:17:28;;;;;;;;;;;20.30;99.90;;;;;;7610287;19;19982;-74
2023/08/22 04:20:00;;;;;;;;;;;20.30;99.90;;;;;;7601310;19;20038;-76
2023/08/22 04:22:34;;;;;;;;;;;20.30;99.90;;;;;;7604332;19;19926;-75
2023/08/22 04:25:12;;;;;;;;;;;20.20;99.90;;;;;;7606859;19;19922;-75
2023/08/22 04:27:45;;;;;;;;;;;20.10;99.90;;;;;;7606770;19;19944;-74
2023/08/22 04:30:19;;;;;;;;;;;20.10;99.90;;;;;;7610093;19;19978;-74
2023/08/22 04:32:52;;;;;;;;;;;20.10;99.90;;;;;;7607839;19;19915;-74
2023/08/22 04:35:27;;;;;;;;;;;20.20;99.90;;;;;;7608620;19;19980;-75
2023/08/22 04:38:00;;;;;;;;;;;20.20;99.90;;;;;;7611110;19;20268;-75
2023/08/22 04:40:32;;;;;;;;;;;20.10;99.90;;;;;;7614598;19;19929;-76
2023/08/22 04:43:08;;;;;;;;;;;20.20;99.90;;;;;;7618257;19;20213;-75
2023/08/22 04:45:40;;;;;;;;;;;20.20;99.90;;;;;;7612094;19;19926;-74
2023/08/22 04:48:13;;;;;;;;;;;20.20;99.90;;;;;;7614595;19;21139;-75
2023/08/22 04:50:48;;;;;;;;;;;20.20;99.90;;;;;;7608499;19;20005;-74
2023/08/22 04:53:21;;;;;;;;;;;20.20;99.90;;;;;;7614532;19;19937;-74
2023/08/22 04:55:55;;;;;;;;;;;20.20;99.90;;;;;;7613026;19;19926;-73
2023/08/22 04:58:28;;;;;;;;;;;20.20;99.90;;;;;;7614260;19;19919;-75
2023/08/22 05:01:00;;;;;;;;;;;20.30;99.90;;;;;;7615067;19;19918;-76
2023/08/22 05:03:32;;;;;;;;;;;20.30;99.90;;;;;;7612298;19;19926;-74
2023/08/22 05:06:04;;;;;;;;;;;20.30;99.90;;;;;;7612193;19;19926;-75
2023/08/22 05:08:36;;;;;;;;;;;20.30;99.90;;;;;;7611970;19;19933;-74
2023/08/22 05:11:11;;;;;;;;;;;20.30;99.90;;;;;;7613338;19;19922;-76
2023/08/22 05:13:43;;;;;;;;;;;20.30;99.90;;;;;;7610987;19;19936;-75
2023/08/22 05:16:16;;;;;;;;;;;20.40;99.90;;;;;;7610088;19;19929;-74
2023/08/22 05:18:49;;;;;;;;;;;20.40;99.90;;;;;;7612075;19;19958;-75
2023/08/22 05:21:21;;;;;;;;;;;20.30;99.90;;;;;;7611842;19;19922;-74
2023/08/22 05:23:53;;;;;;;;;;;20.30;99.90;;;;;;7611232;19;20511;-75
2023/08/22 05:26:26;;;;;;;;;;;20.40;99.90;;;;;;7609339;19;19922;-76
2023/08/22 05:28:58;;;;;;;;;;;20.50;99.90;;;;;;7609141;19;19918;-74
2023/08/22 05:31:32;;;;;;;;;;;20.50;99.90;;;;;;7615020;19;19931;-74
2023/08/22 05:34:05;;;;;;;;;;;20.60;99.90;;;;;;7612769;19;19923;-74
2023/08/22 05:36:37;;;;;;;;;;;20.60;99.90;;;;;;7612634;19;19958;-74
2023/08/22 05:39:10;;;;;;;;;;;20.70;99.90;;;;;;7614925;19;19926;-76
2023/08/22 05:41:45;;;;;;;;;;;20.70;99.90;;;;;;7611774;19;19998;-75
2023/08/22 05:44:17;;;;;;;;;;;20.80;99.90;;;;;;7613813;19;19930;-75
2023/08/22 05:46:50;;;;;;;;;;;20.90;99.90;;;;;;7611184;19;20018;-73
2023/08/22 05:49:26;;;;;;;;;;;21.00;99.90;;;;;;7614364;19;19926;-76
2023/08/22 05:52:02;;;;;;;;;;;21.10;99.90;;;;;;7612358;19;19930;-76
2023/08/22 05:54:35;;;;;;;;;;;21.20;99.90;;;;;;7611971;19;19922;-74
2023/08/22 05:57:08;;;;;;;;;;;21.40;99.90;;;;;;7613377;19;20428;-75
2023/08/22 05:59:40;;;;;;;;;;;21.40;99.90;;;;;;7603893;19;19930;-78
2023/08/22 06:02:12;;;;;;;;;;;21.60;99.90;;;;;;7615485;19;19915;-76
2023/08/22 06:04:45;;;;;;;;;;;21.70;99.90;;;;;;7610140;19;20617;-75
2023/08/22 06:07:18;;;;;;;;;;;21.80;99.90;;;;;;7611988;19;20006;-75
2023/08/22 06:09:51;;;;;;;;;;;21.90;99.90;;;;;;7612392;19;19926;-76
2023/08/22 06:12:24;;;;;;;;;;;22.00;99.90;;;;;;7612394;19;20557;-75
2023/08/22 06:14:56;;;;;;;;;;;22.10;99.90;;;;;;7610041;19;21652;-75
2023/08/22 06:17:28;;;;;;;;;;;22.30;99.90;;;;;;7611426;19;19931;-75
2023/08/22 06:20:00;;;;;;;;;;;22.50;99.90;;;;;;7608740;19;19926;-75
2023/08/22 06:22:36;;;;;;;;;;;22.70;99.90;;;;;;7619426;19;19923;-75
2023/08/22 06:25:08;;;;;;;;;;;23.00;99.90;;;;;;7615780;19;19935;-74
2023/08/22 06:27:41;;;;;;;;;;;23.20;99.90;;;;;;7609554;19;19923;-75
2023/08/22 06:30:14;;;;;;;;;;;23.30;99.90;;;;;;7612494;19;19930;-75
2023/08/22 06:32:46;;;;;;;;;;;23.50;99.90;;;;;;7612166;19;19922;-75
2023/08/22 06:35:18;;;;;;;;;;;23.70;99.90;;;;;;7611277;19;19917;-75
2023/08/22 06:37:51;;;;;;;;;;;23.80;99.90;;;;;;7612460;19;20018;-76
2023/08/22 06:40:24;;;;;;;;;;;23.90;99.90;;;;;;7612354;19;19918;-75
2023/08/22 06:42:56;;;;;;;;;;;24.00;99.90;;;;;;7612568;19;20599;-76
2023/08/22 06:45:38;;;;;;;;;;;24.10;99.90;;;;;;7610778;19;19939;-74
2023/08/22 06:48:10;;;;;;;;;;;24.20;99.90;;;;;;7610880;19;19926;-75
2023/08/22 06:50:42;;;;;;;;;;;24.30;99.90;;;;;;7602943;19;19923;-75
2023/08/22 06:53:14;;;;;;;;;;;24.40;99.90;;;;;;7613260;19;19920;-75
2023/08/22 06:55:47;;;;;;;;;;;24.60;99.90;;;;;;7609712;19;20391;-75
2023/08/22 06:58:19;;;;;;;;;;;24.80;99.90;;;;;;7610302;19;19923;-76
2023/08/22 07:00:52;;;;;;;;;;;24.90;99.90;;;;;;7610162;19;19926;-76
2023/08/22 07:03:24;;;;;;;;;;;25.00;99.90;;;;;;7615151;19;20401;-76
2023/08/22 07:05:56;;;;;;;;;;;25.10;99.90;;;;;;7608474;19;19929;-76
2023/08/22 07:08:28;;;;;;;;;;;25.30;99.90;;;;;;7614827;19;19930;-77
2023/08/22 07:11:04;;;;;;;;;;;25.40;99.90;;;;;;7608715;19;19951;-75
2023/08/22 07:13:36;;;;;;;;;;;25.60;99.90;;;;;;7616243;19;19950;-76
2023/08/22 07:16:10;;;;;;;;;;;25.80;99.90;;;;;;7607595;19;19927;-76
2023/08/22 07:18:43;;;;;;;;;;;25.90;99.90;;;;;;7611367;19;19922;-77
2023/08/22 07:21:15;;;;;;;;;;;26.10;99.90;;;;;;7609363;19;19923;-75
2023/08/22 07:23:47;;;;;;;;;;;26.20;99.90;;;;;;7609304;19;19922;-76
2023/08/22 07:26:19;;;;;;;;;;;26.30;99.90;;;;;;7610276;19;19956;-76
2023/08/22 07:28:51;;;;;;;;;;;26.50;99.90;;;;;;7600980;19;20768;-75
2023/08/22 07:31:23;;;;;;;;;;;26.60;99.90;;;;;;7608293;19;20430;-75
2023/08/22 07:33:55;;;;;;;;;;;26.70;99.90;;;;;;7613481;19;19947;-76
2023/08/22 07:36:27;;;;;;;;;;;26.70;99.90;;;;;;7609090;19;19926;-76
2023/08/22 07:38:59;;;;;;;;;;;26.80;99.90;;;;;;7608262;19;19915;-76
2023/08/22 07:41:32;;;;;;;;;;;27.00;99.90;;;;;;7613679;19;20312;-75
2023/08/22 07:44:04;;;;;;;;;;;27.10;99.90;;;;;;7609272;19;19926;-77
2023/08/22 07:46:36;;;;;;;;;;;27.10;99.90;;;;;;7609517;19;19950;-76
2023/08/22 07:49:09;;;;;;;;;;;27.30;99.80;;;;;;7612720;19;19927;-75
2023/08/22 07:51:41;;;;;;;;;;;27.40;99.90;;;;;;7613189;19;20014;-75
2023/08/22 07:54:13;;;;;;;;;;;27.40;99.20;;;;;;7612250;19;19993;-74
2023/08/22 07:56:45;;;;;;;;;;;27.50;99.40;;;;;;7606050;19;20527;-75
2023/08/22 07:59:18;;;;;;;;;;;27.60;99.30;;;;;;7607465;19;19958;-74
2023/08/22 08:01:50;;;;;;;;;;;27.70;98.80;;;;;;7607376;19;19926;-76
2023/08/22 08:04:22;;;;;;;;;;;27.80;99.40;;;;;;7611294;19;19926;-75
2023/08/22 08:06:54;;;;;;;;;;;28.00;97.90;;;;;;7603735;19;20467;-76
2023/08/22 08:09:26;;;;;;;;;;;28.00;98.30;;;;;;7614467;19;19915;-76
2023/08/22 08:12:07;;;;;;;;;;;28.20;98.10;;;;;;7609555;19;19997;-76
2023/08/22 08:14:39;;;;;;;;;;;28.20;97.60;;;;;;7618467;19;20923;-76
2023/08/22 08:17:11;;;;;;;;;;;28.30;97.50;;;;;;7616084;19;19923;-75
2023/08/22 08:19:44;;;;;;;;;;;28.30;97.30;;;;;;7616636;19;19926;-75
2023/08/22 08:22:16;;;;;;;;;;;28.40;97.20;;;;;;7618788;19;19919;-75
2023/08/22 08:24:48;;;;;;;;;;;28.50;97.40;;;;;;7615318;19;19929;-77
2023/08/22 08:27:21;;;;;;;;;;;28.60;97.80;;;;;;7617175;19;19922;-77
2023/08/22 08:29:53;;;;;;;;;;;28.60;97.00;;;;;;7612541;19;22687;-75
2023/08/22 08:32:25;;;;;;;;;;;28.70;96.60;;;;;;7618876;19;19914;-77
2023/08/22 08:34:57;;;;;;;;;;;28.80;96.80;;;;;;7613509;19;20010;-76
2023/08/22 08:37:33;;;;;;;;;;;28.80;96.40;;;;;;7617547;19;19955;-74
2023/08/22 08:40:08;;;;;;;;;;;29.00;96.10;;;;;;7616307;19;19974;-75
2023/08/22 08:42:40;;;;;;;;;;;28.90;96.00;;;;;;7615846;19;19990;-76
2023/08/22 08:45:13;;;;;;;;;;;29.10;96.00;;;;;;7603615;19;20715;-74
2023/08/22 08:47:46;;;;;;;;;;;29.00;95.70;;;;;;7614894;19;20364;-75
2023/08/22 08:50:19;;;;;;;;;;;29.10;95.80;;;;;;7616488;19;19933;-74
2023/08/22 08:52:51;;;;;;;;;;;29.20;95.10;;;;;;7613965;19;19919;-75
2023/08/22 08:55:23;;;;;;;;;;;29.30;95.60;;;;;;7616175;19;19929;-76
2023/08/22 08:57:56;;;;;;;;;;;29.50;94.80;;;;;;7617136;19;19921;-76
2023/08/22 09:00:30;;;;;;;;;;;29.60;94.50;;;;;;7616056;19;19929;-75
2023/08/22 09:03:02;;;;;;;;;;;29.60;94.20;;;;;;7615987;19;19922;-78
2023/08/22 09:05:34;;;;;;;;;;;29.70;93.60;;;;;;7614335;19;19927;-74
2023/08/22 09:08:17;;;;;;;;;;;29.70;94.20;;;;;;7609979;19;19914;-75
2023/08/22 09:10:50;;;;;;;;;;;29.70;93.80;;;;;;7617276;19;19915;-76
2023/08/22 09:13:26;;;;;;;;;;;29.70;93.20;;;;;;7618415;19;19933;-76
2023/08/22 09:16:22;;;;;;;;;;;29.70;93.00;;;;;;7613793;19;19928;-74
2023/08/22 09:18:58;;;;;;;;;;;29.70;94.00;;;;;;7618941;19;20470;-76
2023/08/22 09:21:31;;;;;;;;;;;29.60;93.50;;;;;;7617603;19;19961;-77
2023/08/22 09:24:10;;;;;;;;;;;29.80;93.00;;;;;;7613801;19;20648;-75
2023/08/22 09:26:46;;;;;;;;;;;29.90;92.80;;;;;;7617665;19;19981;-76
2023/08/22 09:29:29;;;;;;;;;;;30.00;92.50;;;;;;7608191;19;19927;-76
2023/08/22 09:32:01;;;;;;;;;;;30.00;93.00;;;;;;7618473;19;19919;-76
2023/08/22 09:34:34;;;;;;;;;;;30.10;92.90;;;;;;7623806;19;19919;-75
2023/08/22 09:37:07;;;;;;;;;;;30.20;93.10;;;;;;7612359;19;21254;-77
2023/08/22 09:39:43;;;;;;;;;;;30.20;92.10;;;;;;7615534;19;20358;-76
2023/08/22 09:42:15;;;;;;;;;;;30.20;91.70;;;;;;7613823;19;20013;-76
2023/08/22 09:44:47;;;;;;;;;;;30.30;91.70;;;;;;7617157;19;19925;-75
2023/08/22 09:47:19;;;;;;;;;;;30.30;91.80;;;;;;7612282;19;19922;-76
2023/08/22 09:49:55;;;;;;;;;;;30.30;90.70;;;;;;7615185;19;19930;-76
2023/08/22 09:52:27;;;;;;;;;;;30.40;90.40;;;;;;7616160;19;19926;-76
2023/08/22 09:54:59;;;;;;;;;;;30.40;90.70;;;;;;7614981;19;19927;-77
2023/08/22 09:57:32;;;;;;;;;;;30.50;90.90;;;;;;7615275;19;20507;-76
2023/08/22 10:00:05;;;;;;;;;;;30.50;89.60;;;;;;7614911;19;19955;-76
2023/08/22 10:02:46;;;;;;;;;;;30.50;90.80;;;;;;7618147;19;19926;-76
2023/08/22 10:05:18;;;;;;;;;;;30.60;90.30;;;;;;7610112;19;19954;-77
2023/08/22 10:07:50;;;;;;;;;;;30.60;90.10;;;;;;7619864;19;19950;-76
2023/08/22 10:10:23;;;;;;;;;;;30.70;88.90;;;;;;7613074;19;19942;-76
2023/08/22 10:12:56;;;;;;;;;;;30.90;89.80;;;;;;7615454;19;19928;-75
2023/08/22 10:15:28;;;;;;;;;;;30.80;88.30;;;;;;7613519;19;19919;-77
2023/08/22 10:18:01;;;;;;;;;;;30.90;89.10;;;;;;7612078;19;20818;-76
2023/08/22 10:20:34;;;;;;;;;;;30.90;89.20;;;;;;7612085;19;19922;-76
2023/08/22 10:23:10;;;;;;;;;;;31.00;87.50;;;;;;7613555;19;20001;-76
2023/08/22 10:25:45;;;;;;;;;;;31.20;88.70;;;;;;7616832;19;19926;-75
2023/08/22 10:28:18;;;;;;;;;;;31.20;86.30;;;;;;7613399;19;19914;-76
2023/08/22 10:31:00;;;;;;;;;;;31.30;86.40;;;;;;7617763;19;19922;-76
2023/08/22 10:33:32;;;;;;;;;;;31.20;85.50;;;;;;7617680;19;19918;-75
2023/08/22 10:36:06;;;;;;;;;;;31.20;85.60;;;;;;7617440;19;19915;-75
2023/08/22 10:38:55;;;;;;;;;;;31.20;85.20;;;;;;7617332;19;19929;-76
2023/08/22 10:41:53;;;;;;;;;;;31.20;86.20;;;;;;7615293;19;20404;-75
2023/08/22 10:44:30;;;;;;;;;;;31.30;86.50;;;;;;7616630;19;19918;-75
2023/08/22 10:47:06;;;;;;;;;;;31.30;86.50;;;;;;7618793;19;19942;-76
2023/08/22 10:49:39;;;;;;;;;;;31.50;85.60;;;;;;7613409;19;20832;-77
2023/08/22 10:52:26;;;;;;;;;;;31.60;84.50;;;;;;7612323;19;19929;-77
2023/08/22 10:55:10;;;;;;;;;;;31.50;83.60;;;;;;7613642;19;19921;-76
2023/08/22 10:57:46;;;;;;;;;;;31.70;84.40;;;;;;7614753;19;20459;-76
2023/08/22 11:00:19;;;;;;;;;;;31.80;82.40;;;;;;7609645;19;19927;-77
2023/08/22 11:02:56;;;;;;;;;;;31.70;83.20;;;;;;7612579;19;19918;-76
2023/08/22 11:05:29;;;;;;;;;;;31.90;84.10;;;;;;7612094;19;19919;-75
2023/08/22 11:08:04;;;;;;;;;;;32.10;82.60;;;;;;7613689;19;19952;-76
2023/08/22 11:10:36;;;;;;;;;;;32.30;83.20;;;;;;7614925;19;20305;-76
2023/08/22 11:13:08;;;;;;;;;;;32.60;81.60;;;;;;7612868;19;20040;-76
2023/08/22 11:15:42;;;;;;;;;;;32.70;81.50;;;;;;7605872;19;19940;-77
2023/08/22 11:18:14;;;;;;;;;;;33.00;78.80;;;;;;7610797;19;19933;-76
2023/08/22 11:20:53;;;;;;;;;;;33.10;78.30;;;;;;7612191;19;19948;-77
2023/08/22 11:23:25;;;;;;;;;;;33.20;77.20;;;;;;7611797;19;19922;-74
2023/08/22 11:25:58;;;;;;;;;;;33.50;77.00;;;;;;7613257;19;19926;-74
2023/08/22 11:28:33;;;;;;;;;;;33.80;77.20;;;;;;7612303;19;19919;-73
2023/08/22 11:31:12;;;;;;;;;;;33.60;76.60;;;;;;7614791;19;19933;-76
2023/08/22 11:33:49;;;;;;;;;;;33.90;76.20;;;;;;7614607;19;19942;-76
2023/08/22 11:36:22;;;;;;;;;;;34.30;74.70;;;;;;7607587;19;19930;-75
2023/08/22 11:38:59;;;;;;;;;;;34.60;74.30;;;;;;7614293;19;20345;-74
2023/08/22 11:41:31;;;;;;;;;;;34.50;73.70;;;;;;7612456;19;19929;-76
2023/08/22 11:44:04;;;;;;;;;;;34.80;74.70;;;;;;7607172;19;20999;-77
2023/08/22 11:46:37;;;;;;;;;;;34.90;73.80;;;;;;7609248;19;19919;-75
2023/08/22 11:49:40;;;;;;;;;;;34.70;73.20;;;;;;7606945;19;19929;-74
2023/08/22 11:52:12;;;;;;;;;;;34.80;73.60;;;;;;7611730;19;19927;-74
2023/08/22 11:54:45;;;;;;;;;;;35.10;73.50;;;;;;7612599;19;20550;-74
2023/08/22 11:57:17;;;;;;;;;;;35.20;71.50;;;;;;7610056;19;19926;-76
2023/08/22 11:59:49;;;;;;;;;;;35.20;71.10;;;;;;7612005;19;20544;-75
2023/08/22 12:02:21;;;;;;;;;;;35.20;69.80;;;;;;7609868;19;19922;-76
2023/08/22 12:04:55;;;;;;;;;;;35.00;69.80;;;;;;7605479;19;20269;-76
2023/08/22 12:07:27;;;;;;;;;;;34.90;71.00;;;;;;7615107;19;20452;-76
2023/08/22 12:10:01;;;;;;;;;;;35.00;71.00;;;;;;7612022;19;19919;-75
2023/08/22 12:12:33;;;;;;;;;;;35.10;72.50;;;;;;7612587;19;20728;-75
2023/08/22 12:15:05;;;;;;;;;;;35.30;69.30;;;;;;7606683;19;19922;-76
2023/08/22 12:17:38;;;;;;;;;;;35.90;70.60;;;;;;7611583;19;19923;-76
2023/08/22 12:20:10;;;;;;;;;;;36.20;69.50;;;;;;7608973;19;19915;-74
2023/08/22 12:22:42;;;;;;;;;;;36.50;70.10;;;;;;7612513;19;19915;-75
2023/08/22 12:25:15;;;;;;;;;;;37.00;70.40;;;;;;7610247;19;19990;-75
2023/08/22 12:27:47;;;;;;;;;;;37.20;67.10;;;;;;7610479;19;19954;-76
2023/08/22 12:30:19;;;;;;;;;;;37.00;65.70;;;;;;7607417;19;20287;-74
2023/08/22 12:32:51;;;;;;;;;;;36.70;67.80;;;;;;7604669;19;19919;-74
2023/08/22 12:35:24;;;;;;;;;;;37.00;66.50;;;;;;7606129;19;20040;-75
2023/08/22 12:37:57;;;;;;;;;;;37.40;66.20;;;;;;7607060;19;19930;-76
2023/08/22 12:40:29;;;;;;;;;;;37.60;65.10;;;;;;7610275;19;20355;-76
2023/08/22 12:43:01;;;;;;;;;;;38.00;64.70;;;;;;7605631;19;20498;-74
2023/08/22 12:45:33;;;;;;;;;;;38.10;63.50;;;;;;7609388;19;21517;-75
2023/08/22 12:48:05;;;;;;;;;;;38.20;62.70;;;;;;7609343;19;19987;-75
2023/08/22 12:50:38;;;;;;;;;;;38.20;63.50;;;;;;7608655;19;19919;-75
2023/08/22 12:53:10;;;;;;;;;;;38.30;62.10;;;;;;7608736;19;19956;-76
2023/08/22 12:55:43;;;;;;;;;;;37.70;61.30;;;;;;7609441;19;19956;-77
2023/08/22 12:58:16;;;;;;;;;;;37.50;63.00;;;;;;7608848;19;19915;-76
2023/08/22 13:00:48;;;;;;;;;;;37.70;62.90;;;;;;7620965;19;19915;-77
2023/08/22 13:03:21;;;;;;;;;;;37.70;61.70;;;;;;7616584;19;19926;-76
2023/08/22 13:05:54;;;;;;;;;;;37.50;62.70;;;;;;7615971;19;19934;-75
2023/08/22 13:08:26;;;;;;;;;;;37.20;62.20;;;;;;7619746;19;19922;-76
2023/08/22 13:10:58;;;;;;;;;;;37.50;62.70;;;;;;7621023;19;19933;-75
2023/08/22 13:13:31;;;;;;;;;;;37.90;63.70;;;;;;7617983;19;19919;-74
2023/08/22 13:16:03;;;;;;;;;;;38.00;62.90;;;;;;7615765;19;19915;-76
2023/08/22 13:18:50;;;;;;;;;;;37.80;61.90;;;;;;7617407;19;19956;-74
2023/08/22 13:21:23;;;;;;;;;;;37.50;62.40;;;;;;7618740;19;19948;-75
2023/08/22 13:23:55;;;;;;;;;;;37.20;63.10;;;;;;7619762;19;20266;-76
2023/08/22 13:26:28;;;;;;;;;;;36.80;63.90;;;;;;7615122;19;19915;-75
2023/08/22 13:29:00;;;;;;;;;;;36.10;64.60;;;;;;7620710;19;20423;-75
2023/08/22 13:31:33;;;;;;;;;;;36.00;66.00;;;;;;7617248;19;19915;-75
2023/08/22 13:34:05;;;;;;;;;;;35.80;65.50;;;;;;7617108;19;19923;-76
2023/08/22 13:36:37;;;;;;;;;;;36.00;65.80;;;;;;7608382;19;19922;-76
2023/08/22 13:39:10;;;;;;;;;;;36.40;65.80;;;;;;7613166;19;19922;-75
2023/08/22 13:41:42;;;;;;;;;;;36.70;65.30;;;;;;7619078;19;20648;-77
2023/08/22 13:44:14;;;;;;;;;;;36.90;63.80;;;;;;7618310;19;19922;-75
2023/08/22 13:46:47;;;;;;;;;;;36.40;63.50;;;;;;7618999;19;19925;-74
2023/08/22 13:49:19;;;;;;;;;;;35.70;63.90;;;;;;7615777;19;20481;-76
2023/08/22 13:51:52;;;;;;;;;;;35.50;66.00;;;;;;7619307;19;19915;-76
2023/08/22 13:54:25;;;;;;;;;;;35.70;66.00;;;;;;7618538;19;20932;-76
2023/08/22 13:56:57;;;;;;;;;;;36.10;64.30;;;;;;7619078;19;19923;-75
2023/08/22 13:59:29;;;;;;;;;;;36.10;65.20;;;;;;7617832;19;20522;-76
2023/08/22 14:02:02;;;;;;;;;;;36.10;64.80;;;;;;7617515;19;21325;-76
2023/08/22 14:04:34;;;;;;;;;;;36.40;64.40;;;;;;7614774;19;20051;-75
2023/08/22 14:07:06;;;;;;;;;;;36.50;63.80;;;;;;7613655;19;19930;-76
2023/08/22 14:09:38;;;;;;;;;;;36.50;63.50;;;;;;7616438;19;19918;-76
2023/08/22 14:12:14;;;;;;;;;;;36.70;63.80;;;;;;7613046;19;19976;-76
2023/08/22 14:14:46;;;;;;;;;;;37.00;62.10;;;;;;7615252;19;19981;-76
2023/08/22 14:17:18;;;;;;;;;;;37.30;61.60;;;;;;7612522;19;19923;-75
2023/08/22 14:19:50;;;;;;;;;;;37.50;61.50;;;;;;7614626;19;19925;-77
2023/08/22 14:22:22;;;;;;;;;;;36.70;63.30;;;;;;7615725;19;20293;-76
2023/08/22 14:24:54;;;;;;;;;;;36.40;64.00;;;;;;7613135;19;19923;-74
2023/08/22 14:27:26;;;;;;;;;;;36.40;65.60;;;;;;7613562;19;19922;-76
2023/08/22 14:29:58;;;;;;;;;;;36.40;64.70;;;;;;7615019;19;19922;-77
2023/08/22 14:32:31;;;;;;;;;;;36.70;65.10;;;;;;7611581;19;19926;-74
2023/08/22 14:35:05;;;;;;;;;;;36.90;63.30;;;;;;7614624;19;19914;-74
2023/08/22 14:37:37;;;;;;;;;;;36.90;64.00;;;;;;7610906;19;20357;-75
2023/08/22 14:40:09;;;;;;;;;;;37.10;64.00;;;;;;7608358;19;19922;-76
2023/08/22 14:42:41;;;;;;;;;;;37.40;63.30;;;;;;7616021;19;19946;-76
2023/08/22 14:45:13;;;;;;;;;;;36.70;63.60;;;;;;7609970;19;19930;-75
2023/08/22 14:47:46;;;;;;;;;;;36.20;65.40;;;;;;7614263;19;19926;-76
2023/08/22 14:50:18;;;;;;;;;;;36.00;65.80;;;;;;7605494;19;19922;-76
2023/08/22 14:52:50;;;;;;;;;;;35.80;66.00;;;;;;7612668;19;19918;-74